Terminal Aerodrome Forecast
Issued by NWS Blacksburg, VA

Current Version | Previous Version | Graphics & Text | Print | Product List | Glossary On
Versions: 1 2 3 4 5 6 7 8 9 10 11 12 13 14 15 16 17 18 19 20 21 22 23 24 25 26 27 28 29 30 31 32 33 34 35 36 37
342
FTUS41 KRNK 142248 AAB
TAFBLF
TAF AMD
KBLF 142248Z 1423/1518 14010KT 1/2SM SN FZFG VV008
     FM150700 16008G15KT 1SM -SN BR OVC004
     FM151400 17006KT 1 1/2SM -FZRAPL BR OVC004=

USA.gov is the U.S. government's official web portal to all federal, state and local government web resources and services.